UKLL/LWO METAR and TAF weather

Enter ICAO airport designator
Station Type Date Time Source
UKLL METAR 2019/02/21 15:30 UTC NOAA

UKLL 211530Z 27004MPS 9999 OVC030 06/03 Q1019 R31/290055 TEMPO BKN007


Station Type Date Time Source
UKLL Decoded METAR 2019/02/21 15:30 UTC NOAA

L'Viv, Ukraine (UKLL) 49-49N 023-57E 323M
Feb 21, 2019 - 10:30 AM EST / 2019.02.21 1530 UTC
Wind: from the W (270 degrees) at 9 MPH (8 KT):0
Visibility: greater than 7 mile(s):0
Sky conditions: overcast
Temperature: 42 F (6 C)
Dew Point: 37 F (3 C)
Relative Humidity: 81%
Pressure (altimeter): 30.09 in. Hg (1019 hPa)
ob: UKLL 211530Z 27004MPS 9999 OVC030 06/03 Q1019 R31/290055 TEMPO BKN007
cycle: 15

Station Type Date Time Source
UKLL TAF 2019/02/21 12:15 UTC NOAA

TAF UKLL 211110Z 2112/2212 28006G12MPS 4000 BR BKN007 TX05/2112Z TNM02/2212Z
TEMPO 2112/2201 2100 -SHRA BKN004 BKN020CB
BECMG 2201/2203 03007G13MPS
TEMPO 2203/2206 1100 SHSNRA BKN004 BKN015CB
TEMPO 2206/2212 2100 -SHSN BKN015CB


Example: see airport list